sensor_id;sensor_type;location;lat;lon;timestamp;P1;durP1;ratioP1;P2;durP2;ratioP2
40757;SDS011;26462;47.384;19.218;2022-09-03T00:05:19;5.10;;;2.50;;
40757;SDS011;26462;47.384;19.218;2022-09-03T00:11:44;6.63;;;2.83;;
40757;SDS011;26462;47.384;19.218;2022-09-03T00:14:38;6.03;;;2.33;;
40757;SDS011;26462;47.384;19.218;2022-09-03T00:17:30;6.85;;;2.67;;
40757;SDS011;26462;47.384;19.218;2022-09-03T00:20:44;4.57;;;2.50;;
40757;SDS011;26462;47.384;19.218;2022-09-03T00:23:51;6.45;;;3.35;;
40757;SDS011;26462;47.384;19.218;2022-09-03T00:26:29;6.93;;;2.60;;
40757;SDS011;26462;47.384;19.218;2022-09-03T00:29:19;6.55;;;2.28;;
40757;SDS011;26462;47.384;19.218;2022-09-03T00:32:10;4.78;;;2.55;;
40757;SDS011;26462;47.384;19.218;2022-09-03T00:34:57;4.28;;;2.40;;
40757;SDS011;26462;47.384;19.218;2022-09-03T00:37:41;4.93;;;2.70;;
40757;SDS011;26462;47.384;19.218;2022-09-03T00:56:02;5.82;;;2.63;;
40757;SDS011;26462;47.384;19.218;2022-09-03T01:02:14;6.05;;;2.75;;
40757;SDS011;26462;47.384;19.218;2022-09-03T01:09:02;5.88;;;2.50;;
40757;SDS011;26462;47.384;19.218;2022-09-03T01:12:43;5.30;;;2.75;;
40757;SDS011;26462;47.384;19.218;2022-09-03T01:32:57;7.05;;;2.35;;
40757;SDS011;26462;47.384;19.218;2022-09-03T01:35:41;6.32;;;2.70;;
40757;SDS011;26462;47.384;19.218;2022-09-03T01:38:58;4.07;;;2.58;;
40757;SDS011;26462;47.384;19.218;2022-09-03T01:49:24;5.03;;;2.53;;
40757;SDS011;26462;47.384;19.218;2022-09-03T01:52:37;4.32;;;2.50;;
40757;SDS011;26462;47.384;19.218;2022-09-03T01:59:40;6.18;;;2.45;;
40757;SDS011;26462;47.384;19.218;2022-09-03T02:02:42;4.55;;;2.47;;
40757;SDS011;26462;47.384;19.218;2022-09-03T02:05:27;4.70;;;2.40;;
40757;SDS011;26462;47.384;19.218;2022-09-03T02:08:36;4.15;;;2.42;;
40757;SDS011;26462;47.384;19.218;2022-09-03T02:11:26;6.45;;;2.83;;
40757;SDS011;26462;47.384;19.218;2022-09-03T02:14:16;6.05;;;2.67;;
40757;SDS011;26462;47.384;19.218;2022-09-03T02:17:55;4.80;;;2.58;;
40757;SDS011;26462;47.384;19.218;2022-09-03T02:20:54;4.95;;;2.42;;
40757;SDS011;26462;47.384;19.218;2022-09-03T02:23:59;5.03;;;2.72;;
40757;SDS011;26462;47.384;19.218;2022-09-03T02:27:27;7.70;;;3.08;;
40757;SDS011;26462;47.384;19.218;2022-09-03T02:30:18;6.57;;;2.72;;
40757;SDS011;26462;47.384;19.218;2022-09-03T02:33:47;4.65;;;2.60;;
40757;SDS011;26462;47.384;19.218;2022-09-03T02:36:51;5.82;;;2.55;;
40757;SDS011;26462;47.384;19.218;2022-09-03T02:40:13;6.55;;;2.95;;
40757;SDS011;26462;47.384;19.218;2022-09-03T02:46:58;7.97;;;3.15;;
40757;SDS011;26462;47.384;19.218;2022-09-03T02:50:59;6.25;;;3.00;;
40757;SDS011;26462;47.384;19.218;2022-09-03T02:53:55;5.60;;;2.53;;
40757;SDS011;26462;47.384;19.218;2022-09-03T02:57:18;6.55;;;3.03;;
40757;SDS011;26462;47.384;19.218;2022-09-03T03:00:12;5.53;;;2.50;;
40757;SDS011;26462;47.384;19.218;2022-09-03T03:03:05;5.95;;;2.53;;
40757;SDS011;26462;47.384;19.218;2022-09-03T03:06:49;3.75;;;2.33;;
40757;SDS011;26462;47.384;19.218;2022-09-03T03:13:39;4.97;;;2.40;;
40757;SDS011;26462;47.384;19.218;2022-09-03T03:17:13;3.95;;;2.42;;
40757;SDS011;26462;47.384;19.218;2022-09-03T03:20:31;4.97;;;2.42;;
40757;SDS011;26462;47.384;19.218;2022-09-03T03:23:23;7.78;;;2.42;;
40757;SDS011;26462;47.384;19.218;2022-09-03T03:26:49;4.13;;;1.93;;
40757;SDS011;26462;47.384;19.218;2022-09-03T03:31:12;8.25;;;2.42;;
40757;SDS011;26462;47.384;19.218;2022-09-03T03:34:03;6.15;;;3.03;;
40757;SDS011;26462;47.384;19.218;2022-09-03T03:38:07;5.80;;;2.17;;
40757;SDS011;26462;47.384;19.218;2022-09-03T03:41:40;3.53;;;1.83;;
40757;SDS011;26462;47.384;19.218;2022-09-03T03:44:48;4.00;;;2.15;;
40757;SDS011;26462;47.384;19.218;2022-09-03T03:56:25;4.25;;;2.53;;
40757;SDS011;26462;47.384;19.218;2022-09-03T04:04:22;3.42;;;2.33;;
40757;SDS011;26462;47.384;19.218;2022-09-03T04:09:22;4.90;;;2.83;;
40757;SDS011;26462;47.384;19.218;2022-09-03T04:11:49;4.30;;;2.67;;
40757;SDS011;26462;47.384;19.218;2022-09-03T04:14:49;3.72;;;2.20;;
40757;SDS011;26462;47.384;19.218;2022-09-03T04:18:35;8.60;;;3.20;;
40757;SDS011;26462;47.384;19.218;2022-09-03T04:22:19;6.80;;;2.90;;
40757;SDS011;26462;47.384;19.218;2022-09-03T04:29:49;6.65;;;2.67;;
40757;SDS011;26462;47.384;19.218;2022-09-03T04:33:48;6.38;;;2.75;;
40757;SDS011;26462;47.384;19.218;2022-09-03T04:37:13;7.28;;;3.00;;
40757;SDS011;26462;47.384;19.218;2022-09-03T04:41:17;6.05;;;2.70;;
40757;SDS011;26462;47.384;19.218;2022-09-03T04:50:54;6.47;;;2.88;;
40757;SDS011;26462;47.384;19.218;2022-09-03T05:06:30;5.82;;;2.83;;
40757;SDS011;26462;47.384;19.218;2022-09-03T05:10:24;9.07;;;3.42;;
40757;SDS011;26462;47.384;19.218;2022-09-03T05:13:58;9.07;;;3.03;;
40757;SDS011;26462;47.384;19.218;2022-09-03T05:17:34;5.05;;;2.97;;
40757;SDS011;26462;47.384;19.218;2022-09-03T05:20:59;5.27;;;3.37;;
40757;SDS011;26462;47.384;19.218;2022-09-03T05:24:53;6.72;;;3.53;;
40757;SDS011;26462;47.384;19.218;2022-09-03T05:27:46;7.28;;;2.85;;
40757;SDS011;26462;47.384;19.218;2022-09-03T05:31:30;8.70;;;4.32;;
40757;SDS011;26462;47.384;19.218;2022-09-03T05:34:34;8.00;;;4.20;;
40757;SDS011;26462;47.384;19.218;2022-09-03T05:37:15;8.85;;;4.53;;
40757;SDS011;26462;47.384;19.218;2022-09-03T05:40:15;7.22;;;4.10;;
40757;SDS011;26462;47.384;19.218;2022-09-03T05:42:58;7.47;;;3.97;;
40757;SDS011;26462;47.384;19.218;2022-09-03T05:46:05;8.80;;;4.47;;
40757;SDS011;26462;47.384;19.218;2022-09-03T05:48:58;8.75;;;5.07;;
40757;SDS011;26462;47.384;19.218;2022-09-03T05:51:55;8.07;;;5.15;;
40757;SDS011;26462;47.384;19.218;2022-09-03T05:54:34;9.93;;;5.03;;
40757;SDS011;26462;47.384;19.218;2022-09-03T05:57:16;8.88;;;4.65;;
40757;SDS011;26462;47.384;19.218;2022-09-03T06:00:21;9.10;;;5.88;;
40757;SDS011;26462;47.384;19.218;2022-09-03T06:04:09;10.50;;;5.32;;
40757;SDS011;26462;47.384;19.218;2022-09-03T06:06:59;8.70;;;5.60;;
40757;SDS011;26462;47.384;19.218;2022-09-03T06:09:48;11.60;;;6.07;;
40757;SDS011;26462;47.384;19.218;2022-09-03T06:12:45;9.98;;;5.60;;
40757;SDS011;26462;47.384;19.218;2022-09-03T06:15:57;12.20;;;6.07;;
40757;SDS011;26462;47.384;19.218;2022-09-03T06:19:18;10.10;;;5.60;;
40757;SDS011;26462;47.384;19.218;2022-09-03T06:22:08;9.23;;;5.57;;
40757;SDS011;26462;47.384;19.218;2022-09-03T06:25:14;12.27;;;6.40;;
40757;SDS011;26462;47.384;19.218;2022-09-03T06:28:25;10.05;;;5.63;;
40757;SDS011;26462;47.384;19.218;2022-09-03T06:31:57;8.82;;;5.10;;
40757;SDS011;26462;47.384;19.218;2022-09-03T06:35:29;10.85;;;5.38;;
40757;SDS011;26462;47.384;19.218;2022-09-03T06:38:36;9.27;;;5.13;;
40757;SDS011;26462;47.384;19.218;2022-09-03T06:41:14;7.05;;;4.70;;
40757;SDS011;26462;47.384;19.218;2022-09-03T06:44:34;6.82;;;3.95;;
40757;SDS011;26462;47.384;19.218;2022-09-03T06:47:47;8.35;;;4.55;;
40757;SDS011;26462;47.384;19.218;2022-09-03T07:06:46;7.13;;;3.80;;
40757;SDS011;26462;47.384;19.218;2022-09-03T07:11:23;8.57;;;4.13;;
40757;SDS011;26462;47.384;19.218;2022-09-03T07:15:05;8.25;;;4.18;;
40757;SDS011;26462;47.384;19.218;2022-09-03T07:19:36;6.15;;;3.88;;
40757;SDS011;26462;47.384;19.218;2022-09-03T07:23:43;8.15;;;3.83;;
40757;SDS011;26462;47.384;19.218;2022-09-03T07:26:12;6.85;;;3.63;;
40757;SDS011;26462;47.384;19.218;2022-09-03T07:28:45;8.50;;;3.53;;
40757;SDS011;26462;47.384;19.218;2022-09-03T07:31:15;6.07;;;3.95;;
40757;SDS011;26462;47.384;19.218;2022-09-03T07:34:38;9.07;;;4.07;;
40757;SDS011;26462;47.384;19.218;2022-09-03T07:37:06;7.88;;;4.25;;
40757;SDS011;26462;47.384;19.218;2022-09-03T07:39:33;7.68;;;3.70;;
40757;SDS011;26462;47.384;19.218;2022-09-03T07:42:00;7.13;;;3.92;;
40757;SDS011;26462;47.384;19.218;2022-09-03T07:44:27;6.60;;;3.90;;
40757;SDS011;26462;47.384;19.218;2022-09-03T07:46:56;7.13;;;3.85;;
40757;SDS011;26462;47.384;19.218;2022-09-03T07:49:23;6.82;;;3.42;;
40757;SDS011;26462;47.384;19.218;2022-09-03T07:51:50;5.55;;;2.47;;
40757;SDS011;26462;47.384;19.218;2022-09-03T07:54:20;6.30;;;2.70;;
40757;SDS011;26462;47.384;19.218;2022-09-03T07:56:49;5.68;;;2.90;;
40757;SDS011;26462;47.384;19.218;2022-09-03T07:59:16;6.47;;;3.17;;
40757;SDS011;26462;47.384;19.218;2022-09-03T08:01:43;5.70;;;3.05;;
40757;SDS011;26462;47.384;19.218;2022-09-03T08:04:10;6.93;;;3.13;;
40757;SDS011;26462;47.384;19.218;2022-09-03T08:06:38;5.03;;;2.80;;
40757;SDS011;26462;47.384;19.218;2022-09-03T08:09:10;5.82;;;2.65;;
40757;SDS011;26462;47.384;19.218;2022-09-03T08:11:40;7.70;;;2.50;;
40757;SDS011;26462;47.384;19.218;2022-09-03T08:14:09;4.78;;;2.70;;
40757;SDS011;26462;47.384;19.218;2022-09-03T08:16:39;5.35;;;2.72;;
40757;SDS011;26462;47.384;19.218;2022-09-03T08:19:07;4.18;;;2.20;;
40757;SDS011;26462;47.384;19.218;2022-09-03T08:21:36;4.90;;;2.55;;
40757;SDS011;26462;47.384;19.218;2022-09-03T08:24:07;6.15;;;2.28;;
40757;SDS011;26462;47.384;19.218;2022-09-03T08:26:37;7.00;;;3.00;;
40757;SDS011;26462;47.384;19.218;2022-09-03T08:29:07;8.20;;;3.10;;
40757;SDS011;26462;47.384;19.218;2022-09-03T08:31:34;4.38;;;2.60;;
40757;SDS011;26462;47.384;19.218;2022-09-03T08:34:04;5.53;;;2.60;;
40757;SDS011;26462;47.384;19.218;2022-09-03T08:36:33;4.40;;;3.00;;
40757;SDS011;26462;47.384;19.218;2022-09-03T08:39:03;4.57;;;2.50;;
40757;SDS011;26462;47.384;19.218;2022-09-03T08:41:39;4.28;;;2.30;;
40757;SDS011;26462;47.384;19.218;2022-09-03T08:49:44;4.10;;;2.70;;
40757;SDS011;26462;47.384;19.218;2022-09-03T08:54:54;4.32;;;2.55;;
40757;SDS011;26462;47.384;19.218;2022-09-03T08:57:39;3.08;;;2.20;;
40757;SDS011;26462;47.384;19.218;2022-09-03T09:00:10;5.07;;;2.53;;
40757;SDS011;26462;47.384;19.218;2022-09-03T09:05:42;7.22;;;2.45;;
40757;SDS011;26462;47.384;19.218;2022-09-03T09:08:29;5.45;;;2.15;;
40757;SDS011;26462;47.384;19.218;2022-09-03T09:14:02;6.38;;;2.85;;
40757;SDS011;26462;47.384;19.218;2022-09-03T09:22:43;3.42;;;2.30;;
40757;SDS011;26462;47.384;19.218;2022-09-03T09:25:17;6.63;;;2.80;;
40757;SDS011;26462;47.384;19.218;2022-09-03T09:27:53;4.80;;;2.22;;
40757;SDS011;26462;47.384;19.218;2022-09-03T09:30:27;5.55;;;2.40;;
40757;SDS011;26462;47.384;19.218;2022-09-03T09:32:55;4.07;;;2.30;;
40757;SDS011;26462;47.384;19.218;2022-09-03T09:35:23;5.25;;;2.15;;
40757;SDS011;26462;47.384;19.218;2022-09-03T09:37:51;5.55;;;2.38;;
40757;SDS011;26462;47.384;19.218;2022-09-03T09:43:05;3.72;;;2.05;;
40757;SDS011;26462;47.384;19.218;2022-09-03T09:45:39;5.88;;;2.40;;
40757;SDS011;26462;47.384;19.218;2022-09-03T09:48:12;7.13;;;2.30;;
40757;SDS011;26462;47.384;19.218;2022-09-03T09:50:41;5.72;;;2.90;;
40757;SDS011;26462;47.384;19.218;2022-09-03T09:53:09;2.88;;;1.92;;
40757;SDS011;26462;47.384;19.218;2022-09-03T09:55:48;4.65;;;2.20;;
40757;SDS011;26462;47.384;19.218;2022-09-03T09:58:21;4.78;;;2.28;;
40757;SDS011;26462;47.384;19.218;2022-09-03T10:00:57;4.30;;;1.95;;
40757;SDS011;26462;47.384;19.218;2022-09-03T10:03:32;4.57;;;2.67;;
40757;SDS011;26462;47.384;19.218;2022-09-03T10:06:07;3.45;;;2.42;;
40757;SDS011;26462;47.384;19.218;2022-09-03T10:09:10;10.63;;;2.58;;
40757;SDS011;26462;47.384;19.218;2022-09-03T10:11:45;4.13;;;2.05;;
40757;SDS011;26462;47.384;19.218;2022-09-03T10:14:19;6.05;;;1.70;;
40757;SDS011;26462;47.384;19.218;2022-09-03T10:16:55;4.05;;;2.00;;
40757;SDS011;26462;47.384;19.218;2022-09-03T10:19:36;2.70;;;1.65;;
40757;SDS011;26462;47.384;19.218;2022-09-03T10:22:42;4.60;;;1.80;;
40757;SDS011;26462;47.384;19.218;2022-09-03T10:25:28;8.20;;;1.90;;
40757;SDS011;26462;47.384;19.218;2022-09-03T10:28:09;6.40;;;1.77;;
40757;SDS011;26462;47.384;19.218;2022-09-03T10:30:45;4.47;;;2.00;;
40757;SDS011;26462;47.384;19.218;2022-09-03T10:33:34;4.53;;;1.70;;
40757;SDS011;26462;47.384;19.218;2022-09-03T10:38:50;2.83;;;1.27;;
40757;SDS011;26462;47.384;19.218;2022-09-03T10:44:23;2.70;;;1.02;;
40757;SDS011;26462;47.384;19.218;2022-09-03T10:50:09;4.28;;;1.15;;
40757;SDS011;26462;47.384;19.218;2022-09-03T10:55:36;2.50;;;1.45;;
40757;SDS011;26462;47.384;19.218;2022-09-03T11:01:05;4.07;;;1.05;;
40757;SDS011;26462;47.384;19.218;2022-09-03T11:03:58;2.58;;;0.90;;
40757;SDS011;26462;47.384;19.218;2022-09-03T11:07:02;2.92;;;1.10;;
40757;SDS011;26462;47.384;19.218;2022-09-03T11:09:39;4.47;;;1.05;;
40757;SDS011;26462;47.384;19.218;2022-09-03T11:12:21;5.25;;;1.20;;
40757;SDS011;26462;47.384;19.218;2022-09-03T11:15:05;3.05;;;1.35;;
40757;SDS011;26462;47.384;19.218;2022-09-03T11:20:20;5.22;;;1.60;;
40757;SDS011;26462;47.384;19.218;2022-09-03T11:22:56;4.72;;;1.35;;
40757;SDS011;26462;47.384;19.218;2022-09-03T11:25:31;3.45;;;1.35;;
40757;SDS011;26462;47.384;19.218;2022-09-03T11:33:46;2.90;;;1.40;;
40757;SDS011;26462;47.384;19.218;2022-09-03T11:36:35;3.70;;;1.02;;
40757;SDS011;26462;47.384;19.218;2022-09-03T11:39:21;6.70;;;1.23;;
40757;SDS011;26462;47.384;19.218;2022-09-03T11:42:00;2.97;;;1.08;;
40757;SDS011;26462;47.384;19.218;2022-09-03T11:44:39;3.28;;;1.23;;
40757;SDS011;26462;47.384;19.218;2022-09-03T11:49:50;4.57;;;1.55;;
40757;SDS011;26462;47.384;19.218;2022-09-03T11:52:26;2.28;;;0.82;;
40757;SDS011;26462;47.384;19.218;2022-09-03T11:54:55;2.10;;;0.60;;
40757;SDS011;26462;47.384;19.218;2022-09-03T11:57:26;2.88;;;1.10;;
40757;SDS011;26462;47.384;19.218;2022-09-03T12:00:12;2.33;;;1.13;;
40757;SDS011;26462;47.384;19.218;2022-09-03T12:02:44;4.68;;;0.80;;
40757;SDS011;26462;47.384;19.218;2022-09-03T12:10:53;3.75;;;0.88;;
40757;SDS011;26462;47.384;19.218;2022-09-03T12:18:44;1.42;;;0.77;;
40757;SDS011;26462;47.384;19.218;2022-09-03T12:21:18;2.25;;;0.80;;
40757;SDS011;26462;47.384;19.218;2022-09-03T12:23:47;1.55;;;0.55;;
40757;SDS011;26462;47.384;19.218;2022-09-03T12:26:16;4.03;;;0.90;;
40757;SDS011;26462;47.384;19.218;2022-09-03T12:28:51;2.05;;;1.08;;
40757;SDS011;26462;47.384;19.218;2022-09-03T12:33:55;1.58;;;0.68;;
40757;SDS011;26462;47.384;19.218;2022-09-03T12:36:40;2.20;;;0.90;;
40757;SDS011;26462;47.384;19.218;2022-09-03T12:39:10;14.13;;;1.58;;
40757;SDS011;26462;47.384;19.218;2022-09-03T12:42:07;2.25;;;1.02;;
40757;SDS011;26462;47.384;19.218;2022-09-03T12:44:42;3.22;;;0.90;;
40757;SDS011;26462;47.384;19.218;2022-09-03T12:47:17;1.92;;;0.98;;
40757;SDS011;26462;47.384;19.218;2022-09-03T12:50:07;3.58;;;0.60;;
40757;SDS011;26462;47.384;19.218;2022-09-03T12:58:30;2.50;;;0.80;;
40757;SDS011;26462;47.384;19.218;2022-09-03T13:01:23;1.98;;;0.60;;
40757;SDS011;26462;47.384;19.218;2022-09-03T13:04:05;2.13;;;0.60;;
40757;SDS011;26462;47.384;19.218;2022-09-03T13:06:47;5.13;;;0.80;;
40757;SDS011;26462;47.384;19.218;2022-09-03T13:09:23;3.28;;;0.98;;
40757;SDS011;26462;47.384;19.218;2022-09-03T13:11:52;2.38;;;0.68;;
40757;SDS011;26462;47.384;19.218;2022-09-03T13:14:21;2.70;;;1.05;;
40757;SDS011;26462;47.384;19.218;2022-09-03T13:30:30;1.65;;;0.75;;
40757;SDS011;26462;47.384;19.218;2022-09-03T13:33:23;2.65;;;0.63;;
40757;SDS011;26462;47.384;19.218;2022-09-03T13:41:24;2.25;;;0.60;;
40757;SDS011;26462;47.384;19.218;2022-09-03T13:44:17;2.40;;;0.73;;
40757;SDS011;26462;47.384;19.218;2022-09-03T13:47:04;3.42;;;0.95;;
40757;SDS011;26462;47.384;19.218;2022-09-03T13:52:37;2.25;;;1.00;;
40757;SDS011;26462;47.384;19.218;2022-09-03T13:58:05;2.65;;;0.60;;
40757;SDS011;26462;47.384;19.218;2022-09-03T14:04:16;2.08;;;0.98;;
40757;SDS011;26462;47.384;19.218;2022-09-03T14:14:54;2.33;;;1.00;;
40757;SDS011;26462;47.384;19.218;2022-09-03T14:25:54;3.03;;;1.10;;
40757;SDS011;26462;47.384;19.218;2022-09-03T14:36:36;3.38;;;0.80;;
40757;SDS011;26462;47.384;19.218;2022-09-03T14:42:13;3.50;;;0.70;;
40757;SDS011;26462;47.384;19.218;2022-09-03T14:56:11;3.00;;;1.30;;
40757;SDS011;26462;47.384;19.218;2022-09-03T15:01:27;1.73;;;0.85;;
40757;SDS011;26462;47.384;19.218;2022-09-03T15:10:11;2.97;;;0.68;;
40757;SDS011;26462;47.384;19.218;2022-09-03T15:12:33;3.42;;;0.80;;
40757;SDS011;26462;47.384;19.218;2022-09-03T15:15:11;5.55;;;0.88;;
40757;SDS011;26462;47.384;19.218;2022-09-03T15:17:54;4.57;;;1.02;;
40757;SDS011;26462;47.384;19.218;2022-09-03T15:20:43;1.83;;;1.05;;
40757;SDS011;26462;47.384;19.218;2022-09-03T15:23:30;1.83;;;0.85;;
40757;SDS011;26462;47.384;19.218;2022-09-03T15:29:33;3.70;;;0.90;;
40757;SDS011;26462;47.384;19.218;2022-09-03T15:43:28;4.50;;;1.30;;
40757;SDS011;26462;47.384;19.218;2022-09-03T15:46:27;3.88;;;1.00;;
40757;SDS011;26462;47.384;19.218;2022-09-03T15:49:21;2.28;;;0.80;;
40757;SDS011;26462;47.384;19.218;2022-09-03T15:52:15;4.18;;;1.45;;
40757;SDS011;26462;47.384;19.218;2022-09-03T15:55:07;2.35;;;1.10;;
40757;SDS011;26462;47.384;19.218;2022-09-03T16:03:13;2.00;;;1.05;;
40757;SDS011;26462;47.384;19.218;2022-09-03T16:05:52;2.28;;;0.85;;
40757;SDS011;26462;47.384;19.218;2022-09-03T16:13:35;2.92;;;0.95;;
40757;SDS011;26462;47.384;19.218;2022-09-03T16:16:13;1.63;;;0.90;;
40757;SDS011;26462;47.384;19.218;2022-09-03T16:18:57;4.03;;;1.10;;
40757;SDS011;26462;47.384;19.218;2022-09-03T16:24:22;3.50;;;1.10;;
40757;SDS011;26462;47.384;19.218;2022-09-03T16:27:10;3.70;;;1.10;;
40757;SDS011;26462;47.384;19.218;2022-09-03T16:33:16;2.53;;;1.13;;
40757;SDS011;26462;47.384;19.218;2022-09-03T16:46:24;1.30;;;1.02;;
40757;SDS011;26462;47.384;19.218;2022-09-03T16:52:26;6.88;;;3.53;;
40757;SDS011;26462;47.384;19.218;2022-09-03T16:55:23;7.80;;;2.58;;
40757;SDS011;26462;47.384;19.218;2022-09-03T17:09:50;4.57;;;1.48;;
40757;SDS011;26462;47.384;19.218;2022-09-03T17:21:20;3.10;;;1.38;;
40757;SDS011;26462;47.384;19.218;2022-09-03T17:26:46;3.95;;;1.20;;
40757;SDS011;26462;47.384;19.218;2022-09-03T17:40:16;3.55;;;1.33;;
40757;SDS011;26462;47.384;19.218;2022-09-03T17:48:55;4.80;;;1.70;;
40757;SDS011;26462;47.384;19.218;2022-09-03T17:51:30;4.47;;;1.83;;
40757;SDS011;26462;47.384;19.218;2022-09-03T17:54:14;5.13;;;1.40;;
40757;SDS011;26462;47.384;19.218;2022-09-03T17:57:09;5.07;;;1.73;;
40757;SDS011;26462;47.384;19.218;2022-09-03T18:00:01;4.53;;;1.70;;
40757;SDS011;26462;47.384;19.218;2022-09-03T18:02:44;6.88;;;1.70;;
40757;SDS011;26462;47.384;19.218;2022-09-03T18:06:00;5.22;;;1.95;;
40757;SDS011;26462;47.384;19.218;2022-09-03T18:14:11;4.45;;;1.75;;
40757;SDS011;26462;47.384;19.218;2022-09-03T18:17:07;7.82;;;2.88;;
40757;SDS011;26462;47.384;19.218;2022-09-03T18:19:47;5.35;;;2.28;;
40757;SDS011;26462;47.384;19.218;2022-09-03T18:22:43;5.95;;;2.05;;
40757;SDS011;26462;47.384;19.218;2022-09-03T18:25:34;2.85;;;1.33;;
40757;SDS011;26462;47.384;19.218;2022-09-03T18:28:27;3.92;;;1.25;;
40757;SDS011;26462;47.384;19.218;2022-09-03T18:34:12;5.22;;;2.20;;
40757;SDS011;26462;47.384;19.218;2022-09-03T18:36:58;5.97;;;2.42;;
40757;SDS011;26462;47.384;19.218;2022-09-03T18:39:44;6.95;;;2.50;;
40757;SDS011;26462;47.384;19.218;2022-09-03T18:42:54;6.50;;;2.45;;
40757;SDS011;26462;47.384;19.218;2022-09-03T18:45:53;9.82;;;2.72;;
40757;SDS011;26462;47.384;19.218;2022-09-03T18:52:16;6.18;;;2.60;;
40757;SDS011;26462;47.384;19.218;2022-09-03T19:01:10;4.72;;;2.20;;
40757;SDS011;26462;47.384;19.218;2022-09-03T19:04:12;4.63;;;2.20;;
40757;SDS011;26462;47.384;19.218;2022-09-03T19:07:30;2.88;;;1.75;;
40757;SDS011;26462;47.384;19.218;2022-09-03T19:13:37;3.30;;;1.75;;
40757;SDS011;26462;47.384;19.218;2022-09-03T19:20:22;3.40;;;2.00;;
40757;SDS011;26462;47.384;19.218;2022-09-03T19:23:16;2.55;;;1.60;;
40757;SDS011;26462;47.384;19.218;2022-09-03T19:29:28;4.55;;;1.90;;
40757;SDS011;26462;47.384;19.218;2022-09-03T19:32:27;5.25;;;2.08;;
40757;SDS011;26462;47.384;19.218;2022-09-03T19:38:59;3.20;;;1.60;;
40757;SDS011;26462;47.384;19.218;2022-09-03T19:41:50;4.82;;;2.20;;
40757;SDS011;26462;47.384;19.218;2022-09-03T19:51:07;5.53;;;2.30;;
40757;SDS011;26462;47.384;19.218;2022-09-03T19:54:14;3.20;;;2.10;;
40757;SDS011;26462;47.384;19.218;2022-09-03T19:57:03;2.97;;;1.80;;
40757;SDS011;26462;47.384;19.218;2022-09-03T19:59:51;6.47;;;1.65;;
40757;SDS011;26462;47.384;19.218;2022-09-03T20:02:37;5.00;;;1.90;;
40757;SDS011;26462;47.384;19.218;2022-09-03T20:05:25;4.20;;;2.15;;
40757;SDS011;26462;47.384;19.218;2022-09-03T20:08:12;6.95;;;2.40;;
40757;SDS011;26462;47.384;19.218;2022-09-03T20:11:02;2.55;;;1.70;;
40757;SDS011;26462;47.384;19.218;2022-09-03T20:13:31;3.95;;;2.42;;
40757;SDS011;26462;47.384;19.218;2022-09-03T20:19:14;3.28;;;2.05;;
40757;SDS011;26462;47.384;19.218;2022-09-03T20:30:35;4.90;;;2.28;;
40757;SDS011;26462;47.384;19.218;2022-09-03T20:31:52;4.75;;;2.25;;
40757;SDS011;26462;47.384;19.218;2022-09-03T20:51:03;3.28;;;2.08;;
40757;SDS011;26462;47.384;19.218;2022-09-03T21:00:17;4.75;;;2.15;;
40757;SDS011;26462;47.384;19.218;2022-09-03T21:02:50;7.07;;;2.80;;
40757;SDS011;26462;47.384;19.218;2022-09-03T21:17:58;3.08;;;2.63;;
40757;SDS011;26462;47.384;19.218;2022-09-03T21:24:27;4.68;;;2.58;;
40757;SDS011;26462;47.384;19.218;2022-09-03T21:27:02;4.13;;;2.70;;
40757;SDS011;26462;47.384;19.218;2022-09-03T21:40:16;4.10;;;3.10;;
40757;SDS011;26462;47.384;19.218;2022-09-03T22:08:26;4.28;;;2.70;;
40757;SDS011;26462;47.384;19.218;2022-09-03T22:12:19;7.28;;;3.20;;
40757;SDS011;26462;47.384;19.218;2022-09-03T22:16:37;6.93;;;3.00;;
40757;SDS011;26462;47.384;19.218;2022-09-03T22:20:44;5.43;;;2.90;;
40757;SDS011;26462;47.384;19.218;2022-09-03T22:26:38;6.30;;;3.35;;
40757;SDS011;26462;47.384;19.218;2022-09-03T23:17:09;6.70;;;3.63;;
40757;SDS011;26462;47.384;19.218;2022-09-03T23:20:03;8.20;;;3.65;;
40757;SDS011;26462;47.384;19.218;2022-09-03T23:25:57;6.10;;;4.38;;
40757;SDS011;26462;47.384;19.218;2022-09-03T23:29:01;7.43;;;3.83;;
40757;SDS011;26462;47.384;19.218;2022-09-03T23:31:49;5.85;;;3.70;;
40757;SDS011;26462;47.384;19.218;2022-09-03T23:35:03;8.68;;;3.75;;
40757;SDS011;26462;47.384;19.218;2022-09-03T23:39:13;6.82;;;3.72;;
40757;SDS011;26462;47.384;19.218;2022-09-03T23:42:28;7.40;;;3.97;;
40757;SDS011;26462;47.384;19.218;2022-09-03T23:45:48;6.93;;;4.38;;
40757;SDS011;26462;47.384;19.218;2022-09-03T23:52:00;6.50;;;4.57;;
40757;SDS011;26462;47.384;19.218;2022-09-03T23:58:06;6.28;;;4.65;;
